Time;durP1;ratioP1;P1;durP2;ratioP2;P2;SDS_P1;SDS_P2;PMS_P1;PMS_P2;Temp;Humidity;BMP_temperature;BMP_pressure;BME280_temperature;BME280_humidity;BME280_pressure;Samples;Min_cycle;Max_cycle;Signal;HPM_P1;HPM_P2
2022/05/20 00:00:28;;;;;;;9.20;5.53;;;15.10;99.90;;;;;;5052966;28;20212;-69
2022/05/20 00:02:56;;;;;;;11.47;5.87;;;15.20;99.90;;;;;;5052828;28;20204;-69
2022/05/20 00:05:23;;;;;;;9.57;5.77;;;15.30;99.90;;;;;;5052527;28;20693;-69
2022/05/20 00:07:50;;;;;;;10.40;5.73;;;15.30;99.90;;;;;;5053015;28;20204;-69
2022/05/20 00:10:17;;;;;;;8.27;5.53;;;15.20;99.90;;;;;;5053306;28;20563;-69
2022/05/20 00:12:45;;;;;;;12.90;5.87;;;15.30;99.90;;;;;;5052892;28;20264;-69
2022/05/20 00:15:13;;;;;;;10.53;4.87;;;15.30;99.90;;;;;;5052371;28;20232;-69
2022/05/20 00:17:42;;;;;;;10.80;6.00;;;15.30;99.90;;;;;;5052338;28;20215;-69
2022/05/20 00:20:12;;;;;;;11.00;5.77;;;15.40;99.90;;;;;;5052221;28;20235;-69
2022/05/20 00:22:39;;;;;;;12.60;7.20;;;15.30;99.90;;;;;;5052899;28;20214;-69
2022/05/20 00:27:52;;;;;;;10.40;5.90;;;15.20;99.90;;;;;;5052429;28;20288;-69
2022/05/20 00:30:19;;;;;;;9.07;5.50;;;15.30;99.90;;;;;;5052614;28;20223;-69
2022/05/20 00:32:47;;;;;;;11.17;5.63;;;15.30;99.90;;;;;;5060263;28;20202;-69
2022/05/20 00:35:15;;;;;;;10.27;6.30;;;15.40;99.90;;;;;;5072380;28;20231;-69
2022/05/20 00:37:42;;;;;;;9.33;5.40;;;15.40;99.90;;;;;;5072720;28;20725;-69
2022/05/20 00:40:11;;;;;;;10.80;5.73;;;15.50;99.90;;;;;;5072914;28;20202;-70
2022/05/20 00:42:39;;;;;;;11.50;5.50;;;15.50;99.90;;;;;;5072902;28;20230;-69
2022/05/20 00:45:07;;;;;;;11.13;6.00;;;15.60;99.90;;;;;;5072520;28;20593;-71
2022/05/20 00:47:34;;;;;;;10.47;6.10;;;15.50;99.90;;;;;;5072543;28;20262;-69
2022/05/20 00:50:08;;;;;;;11.27;5.27;;;15.40;99.90;;;;;;5065291;28;20196;-70
2022/05/20 00:52:38;;;;;;;11.80;6.53;;;15.30;99.90;;;;;;5052385;28;20203;-70
2022/05/20 00:55:09;;;;;;;10.10;5.63;;;15.30;99.90;;;;;;5052361;28;20251;-69
2022/05/20 00:57:40;;;;;;;8.43;5.60;;;15.20;99.90;;;;;;5052400;28;20243;-70
2022/05/20 01:00:10;;;;;;;10.40;6.83;;;15.20;99.90;;;;;;5052427;28;20219;-70
2022/05/20 01:02:38;;;;;;;11.13;6.17;;;15.10;99.90;;;;;;5052129;28;20239;-69
2022/05/20 01:05:13;;;;;;;11.23;6.53;;;15.10;99.90;;;;;;5052006;28;20231;-70
2022/05/20 01:07:41;;;;;;;10.50;6.77;;;15.00;99.90;;;;;;5052665;28;20203;-70
2022/05/20 01:10:08;;;;;;;12.50;7.00;;;14.80;99.90;;;;;;5051846;28;20655;-71
2022/05/20 01:12:35;;;;;;;12.67;7.03;;;14.70;99.90;;;;;;5052736;28;20200;-70
2022/05/20 01:15:04;;;;;;;11.67;6.30;;;14.60;99.90;;;;;;5055882;28;20228;-69
2022/05/20 01:17:30;;;;;;;11.53;7.20;;;14.70;99.90;;;;;;5055989;28;20204;-69
2022/05/20 01:19:58;;;;;;;10.57;6.97;;;14.80;99.90;;;;;;5056001;28;20211;-69
2022/05/20 01:22:31;;;;;;;12.07;6.53;;;14.80;99.90;;;;;;5055985;28;20200;-69
2022/05/20 01:24:59;;;;;;;12.97;6.60;;;14.80;99.90;;;;;;5055685;28;20224;-69
2022/05/20 01:27:26;;;;;;;11.67;7.07;;;14.80;99.90;;;;;;5055341;28;20570;-69
2022/05/20 01:29:53;;;;;;;15.10;8.47;;;14.70;99.90;;;;;;5055806;28;20291;-69
2022/05/20 01:32:20;;;;;;;13.70;7.60;;;14.80;99.90;;;;;;5060592;28;20195;-70
2022/05/20 01:34:46;;;;;;;14.53;8.10;;;14.70;99.90;;;;;;5075257;28;20586;-69
2022/05/20 01:37:13;;;;;;;15.07;8.30;;;14.70;99.90;;;;;;5075820;28;20234;-70
2022/05/20 01:39:42;;;;;;;16.63;7.90;;;14.70;99.90;;;;;;5075448;28;20207;-69
2022/05/20 01:42:16;;;;;;;15.00;7.77;;;14.70;99.90;;;;;;5075723;28;20207;-69
2022/05/20 01:44:50;;;;;;;14.47;7.70;;;14.60;99.90;;;;;;5075577;28;20744;-69
2022/05/20 01:47:24;;;;;;;15.27;8.27;;;14.50;99.90;;;;;;5075264;28;20656;-70
2022/05/20 01:49:54;;;;;;;13.23;8.07;;;14.50;99.90;;;;;;5071587;28;20202;-69
2022/05/20 01:52:29;;;;;;;12.97;7.93;;;14.50;99.90;;;;;;5055081;28;20200;-69
2022/05/20 01:55:02;;;;;;;15.70;8.47;;;14.60;99.90;;;;;;5054552;28;20223;-69
2022/05/20 01:57:35;;;;;;;11.90;7.97;;;14.60;99.90;;;;;;5055173;28;20567;-69
2022/05/20 02:00:07;;;;;;;17.53;8.13;;;14.70;99.90;;;;;;5055080;28;20208;-69
2022/05/20 02:02:42;;;;;;;12.83;7.13;;;14.70;99.90;;;;;;5055159;28;20203;-69
2022/05/20 02:05:13;;;;;;;13.63;7.47;;;14.80;99.90;;;;;;5053888;28;20233;-69
2022/05/20 02:07:44;;;;;;;15.07;8.40;;;14.90;99.90;;;;;;5055103;28;20215;-70
2022/05/20 02:10:17;;;;;;;14.40;7.93;;;14.90;99.90;;;;;;5055309;28;20200;-69
2022/05/20 02:12:51;;;;;;;15.73;7.93;;;15.00;99.90;;;;;;5055048;28;20204;-69
2022/05/20 02:15:22;;;;;;;14.30;7.83;;;14.80;99.90;;;;;;5055232;28;20235;-69
2022/05/20 02:17:54;;;;;;;13.50;8.23;;;14.80;99.90;;;;;;5055258;28;20571;-69
2022/05/20 02:20:26;;;;;;;15.73;8.53;;;14.90;99.90;;;;;;5055006;28;20659;-69
2022/05/20 02:22:56;;;;;;;13.20;7.87;;;14.90;99.90;;;;;;5054633;28;20208;-69
2022/05/20 02:25:28;;;;;;;13.53;8.07;;;14.70;99.90;;;;;;5053957;28;20223;-69
2022/05/20 02:28:04;;;;;;;13.00;7.43;;;14.60;99.90;;;;;;5054160;28;20210;-69
2022/05/20 02:30:34;;;;;;;13.63;7.80;;;14.60;99.90;;;;;;5054636;28;20728;-69
2022/05/20 02:33:06;;;;;;;15.27;7.57;;;14.70;99.90;;;;;;5054889;28;20209;-70
2022/05/20 02:35:34;;;;;;;12.83;7.83;;;14.80;99.90;;;;;;5054528;28;20228;-69
2022/05/20 02:38:06;;;;;;;14.77;7.60;;;14.80;99.90;;;;;;5054213;28;20208;-69
2022/05/20 02:40:33;;;;;;;13.73;8.13;;;14.90;99.90;;;;;;5054281;28;20287;-69
2022/05/20 02:43:01;;;;;;;15.03;8.50;;;14.90;99.90;;;;;;5054566;28;20200;-69
2022/05/20 02:45:28;;;;;;;14.73;8.93;;;14.80;99.90;;;;;;5054525;28;20231;-68
2022/05/20 02:47:55;;;;;;;13.87;8.17;;;14.80;99.90;;;;;;5054440;28;20768;-69
2022/05/20 02:50:22;;;;;;;11.93;7.30;;;14.80;99.90;;;;;;5054010;28;20659;-70
2022/05/20 02:52:48;;;;;;;13.83;7.73;;;14.80;99.90;;;;;;5054237;28;20204;-69
2022/05/20 02:55:15;;;;;;;12.93;8.03;;;14.70;99.90;;;;;;5054147;28;20228;-70
2022/05/20 02:57:44;;;;;;;14.60;8.40;;;14.70;99.90;;;;;;5053999;28;20590;-69
2022/05/20 03:06:01;;;;;;;15.87;8.60;;;14.80;99.90;;;;;;5012359;28;20226;-69
2022/05/20 03:08:28;;;;;;;15.90;8.37;;;14.70;99.90;;;;;;5012234;28;20209;-69
2022/05/20 03:10:56;;;;;;;17.43;8.90;;;14.80;99.90;;;;;;5030430;28;20646;-69
2022/05/20 03:13:23;;;;;;;14.90;8.13;;;14.80;99.90;;;;;;5054240;28;20228;-69
2022/05/20 03:15:51;;;;;;;13.80;8.63;;;14.90;99.90;;;;;;5053990;28;20239;-69
2022/05/20 03:18:18;;;;;;;15.63;8.60;;;15.00;99.90;;;;;;5053708;28;20207;-69
2022/05/20 03:20:44;;;;;;;14.90;7.97;;;15.00;99.90;;;;;;5053867;28;20204;-68
2022/05/20 03:23:11;;;;;;;15.17;7.90;;;15.00;99.90;;;;;;5053934;28;20208;-69
2022/05/20 03:25:39;;;;;;;15.33;8.30;;;15.00;99.90;;;;;;5053089;28;20228;-69
2022/05/20 03:28:06;;;;;;;14.63;7.77;;;15.10;99.90;;;;;;5053774;28;20208;-69
2022/05/20 03:30:33;;;;;;;14.80;8.27;;;15.10;99.90;;;;;;5053758;28;20215;-69
2022/05/20 03:33:01;;;;;;;14.77;8.63;;;15.00;99.90;;;;;;5057893;28;20207;-69
2022/05/20 03:35:27;;;;;;;14.53;9.00;;;14.90;99.90;;;;;;5072591;28;20223;-69
2022/05/20 03:37:54;;;;;;;18.30;9.57;;;14.80;99.90;;;;;;5073100;28;20238;-69
2022/05/20 03:40:21;;;;;;;14.97;8.57;;;14.80;99.90;;;;;;5072770;28;20569;-69
2022/05/20 03:42:48;;;;;;;14.43;9.07;;;14.80;99.90;;;;;;5073187;28;20558;-69
2022/05/20 03:45:15;;;;;;;13.43;8.20;;;14.70;99.90;;;;;;5072863;28;20234;-69
2022/05/20 03:47:41;;;;;;;16.40;8.77;;;14.70;99.90;;;;;;5072574;28;20211;-69
2022/05/20 03:50:10;;;;;;;15.33;8.80;;;14.80;99.90;;;;;;5067827;28;20204;-69
2022/05/20 03:52:37;;;;;;;15.83;8.20;;;14.80;99.90;;;;;;5053007;28;20219;-69
2022/05/20 03:55:05;;;;;;;18.07;9.23;;;14.80;99.90;;;;;;5052835;28;20235;-69
2022/05/20 03:57:31;;;;;;;17.20;9.57;;;14.90;99.90;;;;;;5053045;28;20232;-69
2022/05/20 03:59:58;;;;;;;16.63;9.13;;;15.00;99.90;;;;;;5052898;28;20200;-69
2022/05/20 04:02:24;;;;;;;14.67;8.43;;;15.10;99.90;;;;;;5052888;28;20200;-69
2022/05/20 04:04:55;;;;;;;14.43;8.83;;;15.10;99.90;;;;;;5052542;28;20224;-69
2022/05/20 04:07:25;;;;;;;19.30;9.03;;;15.10;99.90;;;;;;5052696;28;20210;-69
2022/05/20 04:09:53;;;;;;;14.87;8.90;;;15.20;99.90;;;;;;5053073;28;20208;-69
2022/05/20 04:12:25;;;;;;;15.80;8.77;;;15.30;99.90;;;;;;5053197;28;20208;-69
2022/05/20 04:14:53;;;;;;;14.70;8.60;;;15.20;99.90;;;;;;5052252;28;20235;-69
2022/05/20 04:17:19;;;;;;;16.93;9.50;;;15.20;99.90;;;;;;5052379;28;20241;-69
2022/05/20 04:19:46;;;;;;;14.57;8.77;;;15.20;99.90;;;;;;5052720;28;20207;-69
2022/05/20 04:22:15;;;;;;;17.53;9.80;;;15.20;99.90;;;;;;5053168;28;20208;-69
2022/05/20 04:24:43;;;;;;;18.87;10.43;;;15.30;99.90;;;;;;5052170;28;20230;-69
2022/05/20 04:27:10;;;;;;;19.13;10.07;;;15.20;99.90;;;;;;5052412;28;20211;-69
2022/05/20 04:29:37;;;;;;;16.27;9.67;;;15.20;99.90;;;;;;5052558;28;20657;-69
2022/05/20 04:32:05;;;;;;;17.10;9.30;;;15.30;99.90;;;;;;5050686;28;20235;-68
2022/05/20 04:34:32;;;;;;;15.23;9.23;;;15.50;99.90;;;;;;5050996;28;20204;-69
2022/05/20 04:36:59;;;;;;;16.70;8.93;;;15.60;99.90;;;;;;5051802;28;20231;-69
2022/05/20 04:39:25;;;;;;;15.37;9.43;;;15.80;99.90;;;;;;5052081;28;20207;-69
2022/05/20 04:47:22;;;;;;;16.50;8.80;;;16.10;99.90;;;;;;5019508;28;20204;-69
2022/05/20 04:49:48;;;;;;;17.30;9.57;;;16.30;99.90;;;;;;5056070;28;20200;-69
2022/05/20 04:52:16;;;;;;;15.90;9.63;;;16.60;99.90;;;;;;5056206;28;20643;-70
2022/05/20 04:54:52;;;;;;;16.60;9.30;;;17.10;99.90;;;;;;5056954;28;20203;-70
2022/05/20 04:57:26;;;;;;;16.47;9.23;;;17.50;99.90;;;;;;5056392;28;20231;-69
2022/05/20 04:59:54;;;;;;;15.17;8.63;;;17.90;99.90;;;;;;5056377;28;20215;-69
2022/05/20 05:02:21;;;;;;;18.30;9.40;;;18.20;99.90;;;;;;5056367;28;20212;-72
2022/05/20 05:04:49;;;;;;;13.97;9.10;;;17.90;99.90;;;;;;5055801;28;20234;-70
2022/05/20 05:07:15;;;;;;;15.77;9.27;;;17.90;99.90;;;;;;5056148;28;20216;-69
2022/05/20 05:09:44;;;;;;;15.13;8.67;;;17.70;99.90;;;;;;5056302;28;20681;-70
2022/05/20 05:12:12;;;;;;;15.07;9.47;;;17.90;99.90;;;;;;5055884;28;20207;-70
2022/05/20 05:14:42;;;;;;;15.27;9.70;;;17.50;99.90;;;;;;5056531;28;20205;-71
2022/05/20 05:17:11;;;;;;;16.63;9.47;;;17.20;99.90;;;;;;5056457;28;20243;-70
2022/05/20 05:19:39;;;;;;;13.57;8.70;;;17.10;99.90;;;;;;5056225;28;20215;-71
2022/05/20 05:22:07;;;;;;;13.80;9.03;;;17.70;99.90;;;;;;5056522;28;20226;-69
2022/05/20 05:24:35;;;;;;;14.25;8.43;;;18.30;99.90;;;;;;5055380;28;20196;-71
2022/05/20 05:27:03;;;;;;;15.75;8.32;;;19.00;99.90;;;;;;5055322;28;20659;-71
2022/05/20 05:29:30;;;;;;;14.50;8.77;;;19.40;99.90;;;;;;5055502;28;20207;-71
2022/05/20 05:31:58;;;;;;;14.75;8.90;;;19.70;99.90;;;;;;5056060;28;20212;-69
2022/05/20 05:34:28;;;;;;;14.85;9.10;;;20.30;99.90;;;;;;5055888;28;20204;-72
2022/05/20 05:36:54;;;;;;;12.05;7.82;;;20.30;99.90;;;;;;5055591;28;20242;-70
2022/05/20 05:39:21;;;;;;;15.00;8.38;;;19.70;99.90;;;;;;5055847;28;20208;-70
2022/05/20 05:41:48;;;;;;;13.93;8.50;;;19.00;99.90;;;;;;5056108;28;20211;-69
2022/05/20 05:44:15;;;;;;;16.45;9.65;;;18.90;99.90;;;;;;5055470;28;20204;-69
2022/05/20 05:46:41;;;;;;;16.05;8.70;;;19.00;99.90;;;;;;5055457;28;20737;-70
2022/05/20 05:49:10;;;;;;;14.88;9.15;;;19.00;99.90;;;;;;5055255;28;20200;-69
2022/05/20 05:51:36;;;;;;;16.58;8.90;;;19.00;99.90;;;;;;5055459;28;20682;-69
2022/05/20 05:54:03;;;;;;;14.45;8.80;;;18.60;99.90;;;;;;5054155;28;20189;-69
2022/05/20 05:56:30;;;;;;;16.17;9.10;;;18.30;99.90;;;;;;5054340;28;20228;-69
2022/05/20 05:58:57;;;;;;;15.50;9.45;;;18.30;99.90;;;;;;5054350;28;20212;-69
2022/05/20 06:01:24;;;;;;;12.35;7.88;;;18.30;99.90;;;;;;5055439;28;20204;-69
2022/05/20 06:03:50;;;;;;;14.75;8.48;;;18.40;99.90;;;;;;5055578;28;20984;-71
2022/05/20 06:06:18;;;;;;;15.77;8.88;;;18.20;99.90;;;;;;5055244;28;20224;-69
2022/05/20 06:08:45;;;;;;;15.68;9.25;;;18.40;99.90;;;;;;5055658;28;20204;-68
2022/05/20 06:11:13;;;;;;;14.43;8.93;;;19.20;99.90;;;;;;5055328;28;20208;-69
2022/05/20 06:13:40;;;;;;;13.73;8.55;;;20.20;99.90;;;;;;5055337;28;20204;-69
2022/05/20 06:16:07;;;;;;;13.82;9.02;;;20.40;99.90;;;;;;5054965;28;20722;-69
2022/05/20 06:18:34;;;;;;;13.80;8.43;;;20.50;99.90;;;;;;5054957;28;20693;-69
2022/05/20 06:21:04;;;;;;;12.95;8.05;;;20.40;99.90;;;;;;5055063;28;20207;-69
2022/05/20 06:23:32;;;;;;;13.23;8.38;;;20.70;99.90;;;;;;5055260;28;20210;-69
2022/05/20 06:25:59;;;;;;;11.75;8.13;;;21.30;99.90;;;;;;5054998;28;20587;-69
2022/05/20 06:28:25;;;;;;;14.50;8.52;;;21.80;99.90;;;;;;5055038;28;20216;-69
2022/05/20 06:30:52;;;;;;;13.10;8.15;;;22.60;99.90;;;;;;5054925;28;20235;-69
2022/05/20 06:33:19;;;;;;;13.70;7.95;;;23.10;99.90;;;;;;5055106;28;20208;-69
2022/05/20 06:41:16;;;;;;;13.13;8.23;;;23.30;99.90;;;;;;5054739;28;20650;-69
2022/05/20 06:43:43;;;;;;;14.02;7.63;;;23.60;99.90;;;;;;5054634;28;20211;-69
2022/05/20 06:46:10;;;;;;;15.07;8.68;;;23.30;99.90;;;;;;5054672;28;20228;-70
2022/05/20 06:48:39;;;;;;;15.73;8.55;;;22.90;99.90;;;;;;5055546;28;20271;-69
2022/05/20 06:51:06;;;;;;;13.75;8.55;;;23.10;99.90;;;;;;5055900;28;20354;-69
2022/05/20 06:53:35;;;;;;;14.25;8.50;;;23.00;99.90;;;;;;5054699;28;20204;-69
2022/05/20 06:56:02;;;;;;;14.88;9.02;;;22.40;99.90;;;;;;5055077;28;20630;-69
2022/05/20 06:58:30;;;;;;;15.07;8.38;;;22.40;99.90;;;;;;5054851;28;20247;-69
2022/05/20 07:00:57;;;;;;;14.85;9.30;;;22.10;99.90;;;;;;5054551;28;20208;-69
2022/05/20 07:03:24;;;;;;;17.50;8.82;;;21.40;99.90;;;;;;5054530;28;20212;-72
2022/05/20 07:05:51;;;;;;;15.45;9.60;;;21.00;99.90;;;;;;5055038;28;20585;-69
2022/05/20 07:08:18;;;;;;;14.50;8.80;;;20.90;99.90;;;;;;5054452;28;20638;-71
2022/05/20 07:10:46;;;;;;;15.20;8.73;;;21.10;99.90;;;;;;5053500;28;20208;-69
2022/05/20 07:13:13;;;;;;;16.50;9.18;;;21.40;99.90;;;;;;5054352;28;20208;-69
2022/05/20 07:15:40;;;;;;;16.13;8.90;;;21.80;99.90;;;;;;5054124;28;20231;-69
2022/05/20 07:18:07;;;;;;;15.52;9.07;;;21.80;99.90;;;;;;5054048;28;20240;-69
2022/05/20 07:20:34;;;;;;;15.30;8.75;;;21.80;99.90;;;;;;5053950;28;20243;-69
2022/05/20 07:23:01;;;;;;;15.43;8.93;;;21.40;99.90;;;;;;5053765;28;20200;-69
2022/05/20 07:25:28;;;;;;;16.38;8.93;;;21.00;99.90;;;;;;5054308;28;20585;-69
2022/05/20 07:28:00;;;;;;;16.08;8.98;;;21.10;99.90;;;;;;5053960;28;20214;-69
2022/05/20 07:30:27;;;;;;;15.90;8.95;;;21.00;99.90;;;;;;5053888;28;20220;-69
2022/05/20 07:32:55;;;;;;;16.30;9.55;;;21.00;99.90;;;;;;5053728;28;20250;-70
2022/05/20 07:35:22;;;;;;;16.48;8.90;;;21.00;99.90;;;;;;5053303;28;20224;-70
2022/05/20 07:37:50;;;;;;;16.52;9.05;;;20.50;99.90;;;;;;5053992;28;20247;-69
2022/05/20 07:40:17;;;;;;;15.55;8.63;;;20.40;99.90;;;;;;5053698;28;20265;-69
2022/05/20 07:42:44;;;;;;;14.75;8.32;;;20.30;99.90;;;;;;5053916;28;20204;-69
2022/05/20 07:45:13;;;;;;;15.55;9.27;;;20.50;99.90;;;;;;5053542;28;20228;-68
2022/05/20 07:47:40;;;;;;;15.38;8.20;;;20.70;99.90;;;;;;5053626;28;20208;-69
2022/05/20 07:50:08;;;;;;;14.63;8.88;;;20.80;99.90;;;;;;5053505;28;20211;-69
2022/05/20 07:55:24;;;;;;;16.30;8.65;;;20.50;99.90;;;;;;5068642;28;20229;-70
2022/05/20 07:57:51;;;;;;;15.38;8.50;;;20.70;99.90;;;;;;5071655;28;20242;-69
2022/05/20 08:00:21;;;;;;;15.57;8.27;;;21.10;99.90;;;;;;5071274;28;20207;-71
2022/05/20 08:02:49;;;;;;;15.10;8.00;;;21.30;99.90;;;;;;5071415;28;20211;-70
2022/05/20 11:15:07;;;;;;;19.60;9.97;;;19.70;99.90;;;;;;5108891;27;21169;-78
2022/05/20 11:17:57;;;;;;;22.00;10.17;;;19.60;99.90;;;;;;5076373;28;20297;-78
2022/05/20 11:20:39;;;;;;;20.73;11.32;;;19.50;99.90;;;;;;5086635;28;20527;-79
2022/05/20 11:23:44;;;;;;;21.88;11.48;;;19.50;99.90;;;;;;5089910;28;20201;-78
2022/05/20 11:26:33;;;;;;;19.92;11.25;;;19.50;99.90;;;;;;5077072;28;20647;-78
2022/05/20 11:29:32;;;;;;;19.65;11.18;;;19.60;99.90;;;;;;5096550;28;20230;-79
2022/05/20 11:32:07;;;;;;;27.00;12.48;;;19.40;99.90;;;;;;5103373;28;20253;-77
2022/05/20 11:35:03;;;;;;;24.17;11.88;;;19.20;99.90;;;;;;5070173;28;20218;-79
2022/05/20 11:37:53;;;;;;;22.83;12.68;;;19.20;99.90;;;;;;5069957;28;20233;-80
2022/05/20 11:40:41;;;;;;;23.07;12.03;;;19.10;99.90;;;;;;5075998;28;20203;-79
2022/05/20 11:43:37;;;;;;;23.83;11.97;;;19.20;99.90;;;;;;5069015;28;20206;-76
2022/05/20 11:46:14;;;;;;;20.50;11.27;;;19.40;99.90;;;;;;5076938;28;20239;-77
2022/05/20 11:49:07;;;;;;;21.63;10.80;;;19.30;99.90;;;;;;5069575;28;20207;-78
2022/05/20 11:52:02;;;;;;;22.37;10.77;;;19.30;99.90;;;;;;5071541;28;20535;-74
2022/05/20 11:54:33;;;;;;;14.00;7.30;;;19.40;99.90;;;;;;5072494;28;20249;-76
2022/05/20 11:57:05;;;;;;;9.60;5.30;;;19.60;99.90;;;;;;5080819;28;20201;-78
2022/05/20 11:59:41;;;;;;;7.10;3.70;;;19.70;99.90;;;;;;5079182;28;20199;-73
2022/05/20 12:02:12;;;;;;;7.13;3.03;;;19.70;99.90;;;;;;5080709;28;20206;-74
2022/05/20 12:04:41;;;;;;;4.53;2.60;;;19.70;99.90;;;;;;5087347;28;20230;-77
2022/05/20 12:07:11;;;;;;;4.70;1.80;;;19.80;99.90;;;;;;5073117;28;20195;-77
2022/05/20 12:09:40;;;;;;;2.35;1.38;;;19.80;99.90;;;;;;5086197;28;20568;-77
2022/05/20 12:12:25;;;;;;;1.67;1.08;;;19.90;99.90;;;;;;5088023;28;20195;-77
2022/05/20 12:15:24;;;;;;;2.63;0.77;;;19.90;99.90;;;;;;5085000;28;20218;-74
2022/05/20 12:17:53;;;;;;;1.10;0.77;;;20.00;99.90;;;;;;5076811;28;20207;-75
2022/05/20 12:26:23;;;;;;;1.02;0.50;;;20.10;99.90;;;;;;5063494;28;20239;-73
2022/05/20 12:28:51;;;;;;;4.30;0.80;;;20.20;99.90;;;;;;5073226;28;20203;-73
2022/05/20 12:31:25;;;;;;;2.33;0.88;;;20.20;99.90;;;;;;5074176;28;20666;-77
2022/05/20 12:33:54;;;;;;;1.38;0.60;;;20.30;99.90;;;;;;5077273;28;20230;-77
2022/05/20 12:36:35;;;;;;;1.40;0.70;;;20.40;99.90;;;;;;5066891;28;20223;-77
2022/05/20 12:39:18;;;;;;;2.58;0.80;;;20.40;99.90;;;;;;5062232;28;20215;-75
2022/05/20 12:41:58;;;;;;;1.77;0.77;;;20.70;99.90;;;;;;5076110;28;20199;-73
2022/05/20 12:44:36;;;;;;;2.38;0.98;;;20.70;99.90;;;;;;5079638;28;20209;-75
2022/05/20 12:47:38;;;;;;;3.22;0.95;;;21.00;99.90;;;;;;5063515;28;20198;-75
2022/05/20 12:50:08;;;;;;;2.47;0.70;;;21.10;99.90;;;;;;5074329;28;20206;-75
2022/05/20 12:52:48;;;;;;;1.80;0.70;;;21.00;99.90;;;;;;5071939;28;20207;-75
2022/05/20 12:55:19;;;;;;;1.73;0.80;;;20.80;99.90;;;;;;5087416;28;20314;-74
2022/05/20 12:57:52;;;;;;;2.60;1.00;;;20.80;99.90;;;;;;5055283;28;20204;-74
2022/05/20 13:00:28;;;;;;;0.88;0.68;;;20.70;99.90;;;;;;5055053;28;20215;-74
2022/05/20 13:02:58;;;;;;;3.08;0.80;;;20.60;99.90;;;;;;5070000;28;20199;-75
2022/05/20 13:05:32;;;;;;;0.90;0.70;;;20.30;99.90;;;;;;5068465;28;20235;-74
2022/05/20 13:08:05;;;;;;;1.92;0.85;;;20.20;99.90;;;;;;5054355;28;20204;-76
2022/05/20 13:10:35;;;;;;;2.50;1.23;;;19.90;99.90;;;;;;5057022;28;20558;-74
2022/05/20 13:13:06;;;;;;;5.57;1.00;;;19.70;99.90;;;;;;5062859;28;20234;-74
2022/05/20 13:15:40;;;;;;;2.77;0.93;;;19.50;99.90;;;;;;5067966;28;20318;-74
2022/05/20 13:18:13;;;;;;;4.00;1.30;;;19.40;99.90;;;;;;5055594;28;20206;-79
2022/05/20 13:20:42;;;;;;;2.17;0.90;;;19.40;99.90;;;;;;5055029;28;20244;-76
2022/05/20 13:23:19;;;;;;;1.53;1.13;;;19.40;99.90;;;;;;5064664;28;20504;-76
2022/05/20 13:25:46;;;;;;;2.73;1.00;;;19.60;99.90;;;;;;5059202;28;20223;-76
2022/05/20 13:28:23;;;;;;;4.28;0.90;;;19.80;99.90;;;;;;5053779;28;20211;-80
2022/05/20 13:30:50;;;;;;;2.40;1.10;;;19.70;99.90;;;;;;5052812;28;20544;-76
2022/05/20 13:33:17;;;;;;;2.58;1.17;;;19.90;99.90;;;;;;5074970;28;20239;-76
2022/05/20 13:35:53;;;;;;;2.73;1.20;;;20.00;99.90;;;;;;5062962;28;20697;-82
2022/05/20 13:38:25;;;;;;;2.78;1.33;;;20.00;99.90;;;;;;5052749;28;20233;-78
2022/05/20 13:40:53;;;;;;;1.98;0.93;;;20.00;99.90;;;;;;5064115;28;20665;-74
2022/05/20 13:43:26;;;;;;;2.47;1.00;;;20.00;99.90;;;;;;5073283;28;20227;-81
2022/05/20 13:51:27;;;;;;;1.63;1.17;;;20.20;99.90;;;;;;5063708;28;20248;-77
2022/05/20 13:53:58;;;;;;;4.25;1.38;;;20.20;99.90;;;;;;5072516;28;20618;-76
2022/05/20 13:56:31;;;;;;;2.45;1.20;;;20.30;99.90;;;;;;5057504;28;20231;-76
2022/05/20 13:59:00;;;;;;;1.63;1.20;;;20.20;99.90;;;;;;5052272;28;20212;-76
2022/05/20 14:01:27;;;;;;;3.25;1.30;;;20.10;99.90;;;;;;5052895;28;20208;-76
2022/05/20 14:03:54;;;;;;;1.77;1.48;;;20.00;99.90;;;;;;5072254;28;20235;-75
2022/05/20 14:06:22;;;;;;;2.80;2.03;;;20.00;99.90;;;;;;5058341;28;20702;-75
2022/05/20 14:08:54;;;;;;;7.13;4.38;;;19.90;99.90;;;;;;5052914;28;20219;-74
2022/05/20 14:11:29;;;;;;;8.25;5.03;;;19.90;99.90;;;;;;5068534;28;20206;-74
2022/05/20 14:14:01;;;;;;;7.85;5.50;;;19.90;99.90;;;;;;5051522;28;20216;-77
2022/05/20 14:16:32;;;;;;;10.13;6.83;;;19.70;99.90;;;;;;5053565;28;20224;-78
2022/05/20 14:19:02;;;;;;;11.60;6.77;;;19.70;99.90;;;;;;5062299;28;20207;-76
2022/05/20 14:21:33;;;;;;;10.47;5.93;;;19.80;99.90;;;;;;5071714;28;20203;-77
2022/05/20 14:24:07;;;;;;;5.87;4.40;;;19.50;99.90;;;;;;5079484;28;20266;-79
2022/05/20 14:26:41;;;;;;;6.43;4.50;;;19.30;99.90;;;;;;5066510;28;20303;-77
2022/05/20 14:29:15;;;;;;;5.83;4.10;;;19.20;99.90;;;;;;5059998;28;20207;-74
2022/05/20 14:31:46;;;;;;;3.73;2.80;;;18.90;99.90;;;;;;5062565;28;20214;-74
2022/05/20 14:34:18;;;;;;;2.70;2.37;;;18.70;99.90;;;;;;5080240;28;20213;-79
2022/05/20 14:36:45;;;;;;;2.70;2.20;;;18.30;99.90;;;;;;5062570;28;20230;-73
2022/05/20 14:39:16;;;;;;;2.83;2.40;;;18.10;99.90;;;;;;5061136;28;20219;-72
2022/05/20 14:41:55;;;;;;;3.27;2.73;;;18.10;99.90;;;;;;5078229;28;20223;-72
2022/05/20 14:44:22;;;;;;;3.00;2.50;;;18.20;99.90;;;;;;5083030;28;20312;-73
2022/05/20 14:47:15;;;;;;;3.60;3.07;;;18.10;99.90;;;;;;5083080;28;20230;-78
2022/05/20 14:49:49;;;;;;;3.53;2.50;;;18.00;99.90;;;;;;5100496;28;20207;-76
2022/05/20 14:52:27;;;;;;;3.40;2.50;;;18.10;99.90;;;;;;5101889;28;20202;-78
2022/05/20 14:54:54;;;;;;;3.17;2.27;;;18.20;99.90;;;;;;5087555;28;20245;-85
2022/05/20 14:57:34;;;;;;;4.10;2.50;;;18.20;99.90;;;;;;5051708;28;20678;-80
2022/05/20 15:00:20;;;;;;;3.67;2.70;;;18.00;99.90;;;;;;5051578;28;20303;-79
2022/05/20 15:02:47;;;;;;;2.97;2.30;;;17.80;99.90;;;;;;5062315;28;20212;-86
2022/05/20 15:05:14;;;;;;;3.97;2.70;;;17.60;99.90;;;;;;5066347;28;20227;-79
2022/05/20 15:07:42;;;;;;;3.67;2.40;;;17.30;99.90;;;;;;5072826;28;20211;-80
2022/05/20 15:10:11;;;;;;;2.67;2.23;;;17.20;99.90;;;;;;5080881;28;20207;-78
2022/05/20 15:12:39;;;;;;;4.07;2.77;;;17.40;99.90;;;;;;5065350;28;20208;-78
2022/05/20 15:15:07;;;;;;;3.43;2.67;;;17.70;99.90;;;;;;5083908;28;20281;-77
2022/05/20 15:17:36;;;;;;;3.97;2.53;;;18.00;99.90;;;;;;5067140;28;20203;-85
2022/05/20 15:20:03;;;;;;;3.30;2.20;;;18.20;99.90;;;;;;5088748;28;20225;-77
2022/05/20 15:22:30;;;;;;;3.13;2.30;;;18.40;99.90;;;;;;5076318;28;20203;-77
2022/05/20 15:24:57;;;;;;;2.47;2.03;;;18.50;99.90;;;;;;5078070;28;20262;-77
2022/05/20 15:27:27;;;;;;;3.20;2.30;;;18.50;99.90;;;;;;5075094;28;20199;-78
2022/05/20 15:29:56;;;;;;;3.47;2.07;;;18.60;99.90;;;;;;5072708;28;20663;-78
2022/05/20 15:35:08;;;;;;;2.17;1.73;;;18.50;99.90;;;;;;5072528;28;20226;-77
2022/05/20 15:37:38;;;;;;;1.77;1.37;;;18.60;99.90;;;;;;5072105;28;20195;-77
2022/05/20 15:40:08;;;;;;;3.00;1.50;;;18.80;99.90;;;;;;5071860;28;20661;-77
2022/05/20 15:42:35;;;;;;;2.00;1.10;;;18.80;99.90;;;;;;5071955;28;20206;-78
2022/05/20 15:45:04;;;;;;;2.07;1.00;;;18.80;99.90;;;;;;5072534;28;20239;-77
2022/05/20 15:47:31;;;;;;;2.60;1.10;;;18.60;99.90;;;;;;5071320;28;20203;-77
2022/05/20 15:49:58;;;;;;;0.97;0.90;;;18.40;99.90;;;;;;5071732;28;20210;-76
2022/05/20 15:52:29;;;;;;;1.80;0.90;;;18.40;99.90;;;;;;5069866;28;20604;-77
2022/05/20 15:55:01;;;;;;;1.10;0.87;;;18.20;99.90;;;;;;5070867;28;20300;-77
2022/05/20 15:57:31;;;;;;;2.17;1.03;;;18.00;99.90;;;;;;5068678;28;20195;-77
2022/05/20 15:59:58;;;;;;;1.00;0.83;;;17.80;99.90;;;;;;5073036;28;20585;-77
2022/05/20 16:02:27;;;;;;;1.30;1.13;;;17.70;99.90;;;;;;5073676;28;20199;-77
2022/05/20 16:05:17;;;;;;;2.20;1.07;;;17.40;99.90;;;;;;5072542;28;20231;-77
2022/05/20 16:07:42;;;;;;;2.97;1.10;;;17.30;99.90;;;;;;5073364;28;20681;-76
2022/05/20 16:10:10;;;;;;;2.53;1.10;;;17.30;99.90;;;;;;5071218;28;20209;-76
2022/05/20 16:12:36;;;;;;;2.27;1.17;;;17.40;99.90;;;;;;5074893;28;20207;-77
2022/05/20 16:15:05;;;;;;;1.20;1.10;;;17.60;99.90;;;;;;5075201;28;20219;-76
2022/05/20 16:17:33;;;;;;;1.70;1.17;;;17.40;99.90;;;;;;5075660;28;20207;-77
2022/05/20 16:20:00;;;;;;;1.60;1.40;;;17.30;99.90;;;;;;5071197;28;20238;-76
2022/05/20 16:22:30;;;;;;;3.03;1.40;;;17.30;99.90;;;;;;5075391;28;20593;-76
2022/05/20 16:24:58;;;;;;;2.60;2.23;;;17.30;99.90;;;;;;5075132;28;20725;-76
2022/05/20 16:27:26;;;;;;;2.53;2.17;;;17.10;99.90;;;;;;5075481;28;20254;-77
2022/05/20 16:29:53;;;;;;;2.70;2.33;;;17.00;99.90;;;;;;5075123;28;20568;-76
2022/05/20 16:32:19;;;;;;;3.53;2.60;;;17.00;99.90;;;;;;5074949;28;20203;-76
2022/05/20 16:34:48;;;;;;;3.77;2.37;;;17.00;99.90;;;;;;5074759;28;20214;-77
2022/05/20 16:37:14;;;;;;;2.60;2.30;;;17.00;99.90;;;;;;5075003;28;20207;-75
2022/05/20 16:39:41;;;;;;;2.53;2.00;;;16.90;99.90;;;;;;5075210;28;20206;-76
2022/05/20 16:42:09;;;;;;;3.20;1.97;;;16.80;99.90;;;;;;5075165;28;20215;-76